sensor_id;sensor_type;location;lat;lon;timestamp;temperature;humidity
9125;DHT22;4597;48.730;9.114;2022-11-20T00:02:24;5.30;99.90
9125;DHT22;4597;48.730;9.114;2022-11-20T00:04:50;5.30;99.90
9125;DHT22;4597;48.730;9.114;2022-11-20T00:07:15;5.30;99.90
9125;DHT22;4597;48.730;9.114;2022-11-20T00:09:41;5.40;99.90
9125;DHT22;4597;48.730;9.114;2022-11-20T00:12:06;5.30;99.90
9125;DHT22;4597;48.730;9.114;2022-11-20T00:14:32;5.30;99.90
9125;DHT22;4597;48.730;9.114;2022-11-20T00:16:57;5.30;99.90
9125;DHT22;4597;48.730;9.114;2022-11-20T00:19:23;5.40;99.90
9125;DHT22;4597;48.730;9.114;2022-11-20T00:21:48;5.40;99.90
9125;DHT22;4597;48.730;9.114;2022-11-20T00:24:16;5.40;99.90
9125;DHT22;4597;48.730;9.114;2022-11-20T00:26:42;5.40;99.90
9125;DHT22;4597;48.730;9.114;2022-11-20T00:29:08;5.40;99.90
9125;DHT22;4597;48.730;9.114;2022-11-20T00:31:35;5.30;99.90
9125;DHT22;4597;48.730;9.114;2022-11-20T00:34:00;5.40;99.90
9125;DHT22;4597;48.730;9.114;2022-11-20T00:36:27;5.30;99.90
9125;DHT22;4597;48.730;9.114;2022-11-20T00:38:54;5.30;99.90
9125;DHT22;4597;48.730;9.114;2022-11-20T00:41:20;5.30;99.90
9125;DHT22;4597;48.730;9.114;2022-11-20T00:43:46;5.30;99.90
9125;DHT22;4597;48.730;9.114;2022-11-20T00:46:17;5.40;99.90
9125;DHT22;4597;48.730;9.114;2022-11-20T00:48:44;5.40;99.90
9125;DHT22;4597;48.730;9.114;2022-11-20T00:51:12;5.40;99.90
9125;DHT22;4597;48.730;9.114;2022-11-20T00:53:38;5.40;99.90
9125;DHT22;4597;48.730;9.114;2022-11-20T00:56:07;5.40;99.90
9125;DHT22;4597;48.730;9.114;2022-11-20T00:58:37;5.40;99.90
9125;DHT22;4597;48.730;9.114;2022-11-20T01:01:09;5.40;99.90
9125;DHT22;4597;48.730;9.114;2022-11-20T01:03:37;5.40;99.90
9125;DHT22;4597;48.730;9.114;2022-11-20T01:06:06;5.40;99.90
9125;DHT22;4597;48.730;9.114;2022-11-20T01:08:36;5.40;99.90
9125;DHT22;4597;48.730;9.114;2022-11-20T01:11:03;5.40;99.90
9125;DHT22;4597;48.730;9.114;2022-11-20T01:13:30;5.30;99.90
9125;DHT22;4597;48.730;9.114;2022-11-20T01:16:11;5.30;99.90
9125;DHT22;4597;48.730;9.114;2022-11-20T01:18:39;5.30;99.90
9125;DHT22;4597;48.730;9.114;2022-11-20T01:21:14;5.30;99.90
9125;DHT22;4597;48.730;9.114;2022-11-20T01:23:42;5.30;99.90
9125;DHT22;4597;48.730;9.114;2022-11-20T01:26:10;5.30;99.90
9125;DHT22;4597;48.730;9.114;2022-11-20T01:28:36;5.30;99.90
9125;DHT22;4597;48.730;9.114;2022-11-20T01:31:18;5.30;99.90
9125;DHT22;4597;48.730;9.114;2022-11-20T01:33:45;5.30;99.90
9125;DHT22;4597;48.730;9.114;2022-11-20T01:36:12;5.30;99.90
9125;DHT22;4597;48.730;9.114;2022-11-20T01:38:38;5.30;99.90
9125;DHT22;4597;48.730;9.114;2022-11-20T01:41:04;5.30;99.90
9125;DHT22;4597;48.730;9.114;2022-11-20T01:43:30;5.30;99.90
9125;DHT22;4597;48.730;9.114;2022-11-20T01:46:03;5.40;99.90
9125;DHT22;4597;48.730;9.114;2022-11-20T01:48:36;5.30;99.90
9125;DHT22;4597;48.730;9.114;2022-11-20T01:51:04;5.30;99.90
9125;DHT22;4597;48.730;9.114;2022-11-20T01:53:34;5.40;99.90
9125;DHT22;4597;48.730;9.114;2022-11-20T01:56:03;5.40;99.90
9125;DHT22;4597;48.730;9.114;2022-11-20T01:58:33;5.40;99.90
9125;DHT22;4597;48.730;9.114;2022-11-20T02:01:01;5.30;99.90
9125;DHT22;4597;48.730;9.114;2022-11-20T02:03:27;5.40;99.90
9125;DHT22;4597;48.730;9.114;2022-11-20T02:06:22;5.40;99.90
9125;DHT22;4597;48.730;9.114;2022-11-20T02:08:49;5.40;99.90
9125;DHT22;4597;48.730;9.114;2022-11-20T02:11:15;5.50;99.90
9125;DHT22;4597;48.730;9.114;2022-11-20T02:13:41;5.50;99.90
9125;DHT22;4597;48.730;9.114;2022-11-20T02:16:30;5.50;99.90
9125;DHT22;4597;48.730;9.114;2022-11-20T02:19:00;5.50;99.90
9125;DHT22;4597;48.730;9.114;2022-11-20T02:21:32;5.50;99.90
9125;DHT22;4597;48.730;9.114;2022-11-20T02:26:29;5.50;99.90
9125;DHT22;4597;48.730;9.114;2022-11-20T02:28:55;5.50;99.90
9125;DHT22;4597;48.730;9.114;2022-11-20T02:31:22;5.60;99.90
9125;DHT22;4597;48.730;9.114;2022-11-20T02:33:47;5.60;99.90
9125;DHT22;4597;48.730;9.114;2022-11-20T02:36:15;5.50;99.90
9125;DHT22;4597;48.730;9.114;2022-11-20T02:38:41;5.50;99.90
9125;DHT22;4597;48.730;9.114;2022-11-20T02:41:07;5.60;99.90
9125;DHT22;4597;48.730;9.114;2022-11-20T02:43:33;5.60;99.90
9125;DHT22;4597;48.730;9.114;2022-11-20T02:45:58;5.60;99.90
9125;DHT22;4597;48.730;9.114;2022-11-20T02:48:24;5.70;99.90
9125;DHT22;4597;48.730;9.114;2022-11-20T02:50:49;5.70;99.90
9125;DHT22;4597;48.730;9.114;2022-11-20T02:53:15;5.70;99.90
9125;DHT22;4597;48.730;9.114;2022-11-20T02:55:40;5.70;99.90
9125;DHT22;4597;48.730;9.114;2022-11-20T02:58:06;5.70;99.90
9125;DHT22;4597;48.730;9.114;2022-11-20T03:00:31;5.80;99.90
9125;DHT22;4597;48.730;9.114;2022-11-20T03:02:57;5.80;99.90
9125;DHT22;4597;48.730;9.114;2022-11-20T03:05:22;5.80;99.90
9125;DHT22;4597;48.730;9.114;2022-11-20T03:07:48;5.80;99.90
9125;DHT22;4597;48.730;9.114;2022-11-20T03:10:14;5.80;99.90
9125;DHT22;4597;48.730;9.114;2022-11-20T03:12:39;5.80;99.90
9125;DHT22;4597;48.730;9.114;2022-11-20T03:15:05;5.80;99.90
9125;DHT22;4597;48.730;9.114;2022-11-20T03:17:31;5.80;99.90
9125;DHT22;4597;48.730;9.114;2022-11-20T03:19:56;5.80;99.90
9125;DHT22;4597;48.730;9.114;2022-11-20T03:22:22;5.80;99.90
9125;DHT22;4597;48.730;9.114;2022-11-20T03:24:47;5.80;99.90
9125;DHT22;4597;48.730;9.114;2022-11-20T03:27:13;5.80;99.90
9125;DHT22;4597;48.730;9.114;2022-11-20T03:29:38;5.80;99.90
9125;DHT22;4597;48.730;9.114;2022-11-20T03:32:04;5.80;99.90
9125;DHT22;4597;48.730;9.114;2022-11-20T03:34:30;5.90;99.90
9125;DHT22;4597;48.730;9.114;2022-11-20T03:36:55;5.90;99.90
9125;DHT22;4597;48.730;9.114;2022-11-20T03:39:21;5.90;99.90
9125;DHT22;4597;48.730;9.114;2022-11-20T03:41:46;5.90;99.90
9125;DHT22;4597;48.730;9.114;2022-11-20T03:44:12;6.00;99.90
9125;DHT22;4597;48.730;9.114;2022-11-20T03:46:38;6.00;99.90
9125;DHT22;4597;48.730;9.114;2022-11-20T03:49:03;6.00;99.90
9125;DHT22;4597;48.730;9.114;2022-11-20T03:51:34;6.00;99.90
9125;DHT22;4597;48.730;9.114;2022-11-20T03:54:02;6.00;99.90
9125;DHT22;4597;48.730;9.114;2022-11-20T03:56:30;6.00;99.90
9125;DHT22;4597;48.730;9.114;2022-11-20T03:58:56;6.00;99.90
9125;DHT22;4597;48.730;9.114;2022-11-20T04:01:34;6.00;99.90
9125;DHT22;4597;48.730;9.114;2022-11-20T04:04:00;6.00;99.90
9125;DHT22;4597;48.730;9.114;2022-11-20T04:06:28;6.00;99.90
9125;DHT22;4597;48.730;9.114;2022-11-20T04:08:55;5.90;99.90
9125;DHT22;4597;48.730;9.114;2022-11-20T04:13:50;6.10;99.90
9125;DHT22;4597;48.730;9.114;2022-11-20T04:16:17;6.10;99.90
9125;DHT22;4597;48.730;9.114;2022-11-20T04:18:43;6.10;99.90
9125;DHT22;4597;48.730;9.114;2022-11-20T04:21:10;6.20;99.90
9125;DHT22;4597;48.730;9.114;2022-11-20T04:23:36;6.20;99.90
9125;DHT22;4597;48.730;9.114;2022-11-20T04:26:09;6.40;99.90
9125;DHT22;4597;48.730;9.114;2022-11-20T04:28:35;6.40;99.90
9125;DHT22;4597;48.730;9.114;2022-11-20T04:31:06;6.40;99.90
9125;DHT22;4597;48.730;9.114;2022-11-20T04:33:32;6.40;99.90
9125;DHT22;4597;48.730;9.114;2022-11-20T04:36:04;6.40;99.90
9125;DHT22;4597;48.730;9.114;2022-11-20T04:38:30;6.40;99.90
9125;DHT22;4597;48.730;9.114;2022-11-20T04:40:57;6.50;99.90
9125;DHT22;4597;48.730;9.114;2022-11-20T04:43:23;6.60;99.90
9125;DHT22;4597;48.730;9.114;2022-11-20T04:45:54;6.60;99.90
9125;DHT22;4597;48.730;9.114;2022-11-20T04:48:19;6.60;99.90
9125;DHT22;4597;48.730;9.114;2022-11-20T04:50:45;6.60;99.90
9125;DHT22;4597;48.730;9.114;2022-11-20T04:53:11;6.60;99.90
9125;DHT22;4597;48.730;9.114;2022-11-20T04:55:36;6.70;99.90
9125;DHT22;4597;48.730;9.114;2022-11-20T04:58:02;6.70;99.90
9125;DHT22;4597;48.730;9.114;2022-11-20T05:00:27;6.60;99.90
9125;DHT22;4597;48.730;9.114;2022-11-20T05:02:53;6.70;99.90
9125;DHT22;4597;48.730;9.114;2022-11-20T05:05:18;6.70;99.90
9125;DHT22;4597;48.730;9.114;2022-11-20T05:07:44;6.60;99.90
9125;DHT22;4597;48.730;9.114;2022-11-20T05:10:09;6.70;99.90
9125;DHT22;4597;48.730;9.114;2022-11-20T05:12:35;6.60;99.90
9125;DHT22;4597;48.730;9.114;2022-11-20T05:15:00;6.60;99.90
9125;DHT22;4597;48.730;9.114;2022-11-20T05:17:26;6.70;99.90
9125;DHT22;4597;48.730;9.114;2022-11-20T05:19:51;6.60;99.90
9125;DHT22;4597;48.730;9.114;2022-11-20T05:22:17;6.70;99.90
9125;DHT22;4597;48.730;9.114;2022-11-20T05:24:42;6.60;99.90
9125;DHT22;4597;48.730;9.114;2022-11-20T05:27:08;6.60;99.90
9125;DHT22;4597;48.730;9.114;2022-11-20T05:29:33;6.60;99.90
9125;DHT22;4597;48.730;9.114;2022-11-20T05:31:59;6.60;99.90
9125;DHT22;4597;48.730;9.114;2022-11-20T05:34:24;6.70;99.90
9125;DHT22;4597;48.730;9.114;2022-11-20T05:36:50;6.70;99.90
9125;DHT22;4597;48.730;9.114;2022-11-20T05:39:15;6.70;99.90
9125;DHT22;4597;48.730;9.114;2022-11-20T05:41:41;6.70;99.90
9125;DHT22;4597;48.730;9.114;2022-11-20T05:44:06;6.70;99.90
9125;DHT22;4597;48.730;9.114;2022-11-20T05:46:32;6.70;99.90
9125;DHT22;4597;48.730;9.114;2022-11-20T05:48:58;6.70;99.90
9125;DHT22;4597;48.730;9.114;2022-11-20T05:51:25;6.80;99.90
9125;DHT22;4597;48.730;9.114;2022-11-20T05:53:50;6.80;99.90
9125;DHT22;4597;48.730;9.114;2022-11-20T05:56:18;6.80;99.90
9125;DHT22;4597;48.730;9.114;2022-11-20T05:58:44;6.90;99.90
9125;DHT22;4597;48.730;9.114;2022-11-20T06:01:13;6.90;99.90
9125;DHT22;4597;48.730;9.114;2022-11-20T06:03:39;6.90;99.90
9125;DHT22;4597;48.730;9.114;2022-11-20T06:06:05;6.80;99.90
9125;DHT22;4597;48.730;9.114;2022-11-20T06:08:32;6.90;99.90
9125;DHT22;4597;48.730;9.114;2022-11-20T06:10:58;6.90;99.90
9125;DHT22;4597;48.730;9.114;2022-11-20T06:13:24;6.90;99.90
9125;DHT22;4597;48.730;9.114;2022-11-20T06:15:50;6.80;99.90
9125;DHT22;4597;48.730;9.114;2022-11-20T06:18:16;6.80;99.90
9125;DHT22;4597;48.730;9.114;2022-11-20T06:20:42;6.90;99.90
9125;DHT22;4597;48.730;9.114;2022-11-20T06:23:07;6.90;99.90
9125;DHT22;4597;48.730;9.114;2022-11-20T06:25:33;6.90;99.90
9125;DHT22;4597;48.730;9.114;2022-11-20T06:28:02;6.90;99.90
9125;DHT22;4597;48.730;9.114;2022-11-20T06:30:27;6.90;99.90
9125;DHT22;4597;48.730;9.114;2022-11-20T06:32:53;6.90;99.90
9125;DHT22;4597;48.730;9.114;2022-11-20T06:35:18;6.90;99.90
9125;DHT22;4597;48.730;9.114;2022-11-20T06:37:44;6.90;99.90
9125;DHT22;4597;48.730;9.114;2022-11-20T06:40:10;6.90;99.90
9125;DHT22;4597;48.730;9.114;2022-11-20T06:42:35;6.90;99.90
9125;DHT22;4597;48.730;9.114;2022-11-20T06:45:01;6.90;99.90
9125;DHT22;4597;48.730;9.114;2022-11-20T06:47:26;6.90;99.90
9125;DHT22;4597;48.730;9.114;2022-11-20T06:49:52;6.80;99.90
9125;DHT22;4597;48.730;9.114;2022-11-20T06:52:17;6.90;99.90
9125;DHT22;4597;48.730;9.114;2022-11-20T06:54:43;6.90;99.90
9125;DHT22;4597;48.730;9.114;2022-11-20T06:57:08;7.00;99.90
9125;DHT22;4597;48.730;9.114;2022-11-20T06:59:34;7.00;99.90
9125;DHT22;4597;48.730;9.114;2022-11-20T07:01:59;7.00;99.90
9125;DHT22;4597;48.730;9.114;2022-11-20T07:04:25;7.10;99.90
9125;DHT22;4597;48.730;9.114;2022-11-20T07:06:50;7.10;99.90
9125;DHT22;4597;48.730;9.114;2022-11-20T07:09:16;7.10;99.90
9125;DHT22;4597;48.730;9.114;2022-11-20T07:11:41;7.00;99.90
9125;DHT22;4597;48.730;9.114;2022-11-20T07:14:07;7.00;99.90
9125;DHT22;4597;48.730;9.114;2022-11-20T07:16:32;7.00;99.90
9125;DHT22;4597;48.730;9.114;2022-11-20T07:18:58;7.10;99.90
9125;DHT22;4597;48.730;9.114;2022-11-20T07:21:23;7.10;99.90
9125;DHT22;4597;48.730;9.114;2022-11-20T07:23:49;7.10;99.90
9125;DHT22;4597;48.730;9.114;2022-11-20T07:26:14;7.00;99.90
9125;DHT22;4597;48.730;9.114;2022-11-20T07:28:40;7.00;99.90
9125;DHT22;4597;48.730;9.114;2022-11-20T07:31:08;7.00;99.90
9125;DHT22;4597;48.730;9.114;2022-11-20T07:33:34;7.00;99.90
9125;DHT22;4597;48.730;9.114;2022-11-20T07:36:00;7.10;99.90
9125;DHT22;4597;48.730;9.114;2022-11-20T07:38:26;7.10;99.90
9125;DHT22;4597;48.730;9.114;2022-11-20T07:40:55;7.10;99.90
9125;DHT22;4597;48.730;9.114;2022-11-20T07:43:21;7.20;99.90
9125;DHT22;4597;48.730;9.114;2022-11-20T07:45:47;7.10;99.90
9125;DHT22;4597;48.730;9.114;2022-11-20T07:48:12;7.10;99.90
9125;DHT22;4597;48.730;9.114;2022-11-20T07:50:38;7.10;99.90
9125;DHT22;4597;48.730;9.114;2022-11-20T07:53:04;7.10;99.90
9125;DHT22;4597;48.730;9.114;2022-11-20T07:55:30;7.10;99.90
9125;DHT22;4597;48.730;9.114;2022-11-20T07:57:56;7.20;99.90
9125;DHT22;4597;48.730;9.114;2022-11-20T08:00:23;7.20;99.90
9125;DHT22;4597;48.730;9.114;2022-11-20T08:02:48;7.30;99.90
9125;DHT22;4597;48.730;9.114;2022-11-20T08:05:14;7.30;99.90
9125;DHT22;4597;48.730;9.114;2022-11-20T08:07:41;7.40;99.90
9125;DHT22;4597;48.730;9.114;2022-11-20T08:10:08;7.40;99.90
9125;DHT22;4597;48.730;9.114;2022-11-20T08:12:33;7.50;99.90
9125;DHT22;4597;48.730;9.114;2022-11-20T08:15:18;7.40;99.90
9125;DHT22;4597;48.730;9.114;2022-11-20T08:17:43;7.40;99.90
9125;DHT22;4597;48.730;9.114;2022-11-20T08:20:09;7.30;99.90
9125;DHT22;4597;48.730;9.114;2022-11-20T08:22:35;7.30;99.90
9125;DHT22;4597;48.730;9.114;2022-11-20T08:25:00;7.30;99.90
9125;DHT22;4597;48.730;9.114;2022-11-20T08:27:26;7.20;99.90
9125;DHT22;4597;48.730;9.114;2022-11-20T08:29:52;7.20;99.90
9125;DHT22;4597;48.730;9.114;2022-11-20T08:32:17;7.10;99.90
9125;DHT22;4597;48.730;9.114;2022-11-20T08:34:43;7.10;99.90
9125;DHT22;4597;48.730;9.114;2022-11-20T08:37:08;7.10;99.90
9125;DHT22;4597;48.730;9.114;2022-11-20T08:39:34;7.10;99.90
9125;DHT22;4597;48.730;9.114;2022-11-20T08:41:59;7.10;99.90
9125;DHT22;4597;48.730;9.114;2022-11-20T08:44:25;7.10;99.90
9125;DHT22;4597;48.730;9.114;2022-11-20T08:46:50;7.10;99.90
9125;DHT22;4597;48.730;9.114;2022-11-20T08:49:16;7.30;99.90
9125;DHT22;4597;48.730;9.114;2022-11-20T08:51:43;7.30;99.90
9125;DHT22;4597;48.730;9.114;2022-11-20T08:54:08;7.30;99.90
9125;DHT22;4597;48.730;9.114;2022-11-20T08:56:34;7.20;99.90
9125;DHT22;4597;48.730;9.114;2022-11-20T08:59:00;7.30;99.90
9125;DHT22;4597;48.730;9.114;2022-11-20T09:01:26;7.30;99.90
9125;DHT22;4597;48.730;9.114;2022-11-20T09:03:52;7.30;99.90
9125;DHT22;4597;48.730;9.114;2022-11-20T09:06:20;7.40;99.90
9125;DHT22;4597;48.730;9.114;2022-11-20T09:08:45;7.40;99.90
9125;DHT22;4597;48.730;9.114;2022-11-20T09:11:11;7.30;99.90
9125;DHT22;4597;48.730;9.114;2022-11-20T09:13:37;7.40;99.90
9125;DHT22;4597;48.730;9.114;2022-11-20T09:16:05;7.30;99.90
9125;DHT22;4597;48.730;9.114;2022-11-20T09:18:32;7.40;99.90
9125;DHT22;4597;48.730;9.114;2022-11-20T09:20:59;7.40;99.90
9125;DHT22;4597;48.730;9.114;2022-11-20T09:23:25;7.40;99.90
9125;DHT22;4597;48.730;9.114;2022-11-20T09:25:51;7.50;99.90
9125;DHT22;4597;48.730;9.114;2022-11-20T09:28:18;7.50;99.90
9125;DHT22;4597;48.730;9.114;2022-11-20T09:30:44;7.50;99.90
9125;DHT22;4597;48.730;9.114;2022-11-20T09:33:09;7.60;99.90
9125;DHT22;4597;48.730;9.114;2022-11-20T09:35:35;7.70;99.90
9125;DHT22;4597;48.730;9.114;2022-11-20T09:38:05;7.70;99.90
9125;DHT22;4597;48.730;9.114;2022-11-20T09:40:32;7.70;99.90
9125;DHT22;4597;48.730;9.114;2022-11-20T09:43:14;7.70;99.90
9125;DHT22;4597;48.730;9.114;2022-11-20T09:46:04;7.70;99.90
9125;DHT22;4597;48.730;9.114;2022-11-20T09:48:54;7.70;99.90
9125;DHT22;4597;48.730;9.114;2022-11-20T09:54:11;7.70;99.90
9125;DHT22;4597;48.730;9.114;2022-11-20T09:56:40;7.70;99.90
9125;DHT22;4597;48.730;9.114;2022-11-20T09:59:11;7.70;99.90
9125;DHT22;4597;48.730;9.114;2022-11-20T10:01:39;7.70;99.90
9125;DHT22;4597;48.730;9.114;2022-11-20T10:04:13;7.70;99.90
9125;DHT22;4597;48.730;9.114;2022-11-20T10:06:59;7.70;99.90
9125;DHT22;4597;48.730;9.114;2022-11-20T10:09:31;7.70;99.90
9125;DHT22;4597;48.730;9.114;2022-11-20T10:12:19;7.70;99.90
9125;DHT22;4597;48.730;9.114;2022-11-20T10:17:42;7.80;99.90
9125;DHT22;4597;48.730;9.114;2022-11-20T10:20:20;7.70;99.90
9125;DHT22;4597;48.730;9.114;2022-11-20T10:23:11;7.80;99.90
9125;DHT22;4597;48.730;9.114;2022-11-20T10:31:17;7.50;99.90
9125;DHT22;4597;48.730;9.114;2022-11-20T10:33:48;7.30;99.90
9125;DHT22;4597;48.730;9.114;2022-11-20T10:36:22;7.30;99.90
9125;DHT22;4597;48.730;9.114;2022-11-20T10:39:00;7.20;99.90
9125;DHT22;4597;48.730;9.114;2022-11-20T10:41:32;7.20;99.90
9125;DHT22;4597;48.730;9.114;2022-11-20T10:44:09;7.20;99.90
9125;DHT22;4597;48.730;9.114;2022-11-20T10:46:46;7.10;99.90
9125;DHT22;4597;48.730;9.114;2022-11-20T10:49:14;7.10;99.90
9125;DHT22;4597;48.730;9.114;2022-11-20T10:54:43;7.10;99.90
9125;DHT22;4597;48.730;9.114;2022-11-20T11:00:12;7.20;99.90
9125;DHT22;4597;48.730;9.114;2022-11-20T11:02:48;7.30;99.90
9125;DHT22;4597;48.730;9.114;2022-11-20T11:07:48;7.50;99.90
9125;DHT22;4597;48.730;9.114;2022-11-20T11:10:39;7.60;99.90
9125;DHT22;4597;48.730;9.114;2022-11-20T11:13:07;7.80;99.90
9125;DHT22;4597;48.730;9.114;2022-11-20T11:15:40;7.90;99.90
9125;DHT22;4597;48.730;9.114;2022-11-20T11:18:23;7.80;99.90
9125;DHT22;4597;48.730;9.114;2022-11-20T11:20:50;7.90;99.90
9125;DHT22;4597;48.730;9.114;2022-11-20T11:23:35;7.90;99.90
9125;DHT22;4597;48.730;9.114;2022-11-20T11:26:04;7.90;99.90
9125;DHT22;4597;48.730;9.114;2022-11-20T11:28:30;7.90;99.90
9125;DHT22;4597;48.730;9.114;2022-11-20T11:30:56;7.90;99.90
9125;DHT22;4597;48.730;9.114;2022-11-20T11:33:26;8.00;99.90
9125;DHT22;4597;48.730;9.114;2022-11-20T11:35:54;8.10;99.90
9125;DHT22;4597;48.730;9.114;2022-11-20T11:38:43;8.20;99.90
9125;DHT22;4597;48.730;9.114;2022-11-20T11:41:16;8.40;99.90
9125;DHT22;4597;48.730;9.114;2022-11-20T11:43:51;8.50;99.90
9125;DHT22;4597;48.730;9.114;2022-11-20T11:46:36;8.50;99.90
9125;DHT22;4597;48.730;9.114;2022-11-20T11:51:56;8.70;99.90
9125;DHT22;4597;48.730;9.114;2022-11-20T11:54:28;8.80;99.90
9125;DHT22;4597;48.730;9.114;2022-11-20T11:57:01;8.90;99.90
9125;DHT22;4597;48.730;9.114;2022-11-20T11:59:51;8.80;99.90
9125;DHT22;4597;48.730;9.114;2022-11-20T12:02:49;8.90;99.90
9125;DHT22;4597;48.730;9.114;2022-11-20T12:11:06;9.10;99.90
9125;DHT22;4597;48.730;9.114;2022-11-20T12:14:11;9.30;99.90
9125;DHT22;4597;48.730;9.114;2022-11-20T12:16:33;9.50;99.90
9125;DHT22;4597;48.730;9.114;2022-11-20T12:18:59;9.60;99.90
9125;DHT22;4597;48.730;9.114;2022-11-20T12:21:40;9.70;99.90
9125;DHT22;4597;48.730;9.114;2022-11-20T12:30:17;9.90;99.90
9125;DHT22;4597;48.730;9.114;2022-11-20T12:41:18;9.90;99.90
9125;DHT22;4597;48.730;9.114;2022-11-20T12:47:14;10.00;99.90
9125;DHT22;4597;48.730;9.114;2022-11-20T12:50:00;10.10;99.90
9125;DHT22;4597;48.730;9.114;2022-11-20T12:52:37;10.10;99.90
9125;DHT22;4597;48.730;9.114;2022-11-20T12:57:46;10.00;99.90
9125;DHT22;4597;48.730;9.114;2022-11-20T13:00:20;9.90;99.90
9125;DHT22;4597;48.730;9.114;2022-11-20T13:05:55;9.90;99.90
9125;DHT22;4597;48.730;9.114;2022-11-20T13:08:27;9.90;99.90
9125;DHT22;4597;48.730;9.114;2022-11-20T13:13:35;9.70;99.90
9125;DHT22;4597;48.730;9.114;2022-11-20T13:19:13;9.50;99.90
9125;DHT22;4597;48.730;9.114;2022-11-20T13:21:41;9.40;99.90
9125;DHT22;4597;48.730;9.114;2022-11-20T13:29:42;9.30;99.90
9125;DHT22;4597;48.730;9.114;2022-11-20T13:32:20;9.30;99.90
9125;DHT22;4597;48.730;9.114;2022-11-20T13:34:57;9.40;99.90
9125;DHT22;4597;48.730;9.114;2022-11-20T13:37:30;9.30;99.90
9125;DHT22;4597;48.730;9.114;2022-11-20T13:40:25;9.20;99.90
9125;DHT22;4597;48.730;9.114;2022-11-20T13:45:30;9.00;99.90
9125;DHT22;4597;48.730;9.114;2022-11-20T13:48:03;8.90;99.90
9125;DHT22;4597;48.730;9.114;2022-11-20T13:56:23;9.00;99.90
9125;DHT22;4597;48.730;9.114;2022-11-20T13:58:56;9.10;99.90
9125;DHT22;4597;48.730;9.114;2022-11-20T14:01:26;9.20;99.90
9125;DHT22;4597;48.730;9.114;2022-11-20T14:03:53;9.30;99.90
9125;DHT22;4597;48.730;9.114;2022-11-20T14:06:26;9.30;99.90
9125;DHT22;4597;48.730;9.114;2022-11-20T14:08:53;9.20;99.90
9125;DHT22;4597;48.730;9.114;2022-11-20T14:11:21;9.20;99.90
9125;DHT22;4597;48.730;9.114;2022-11-20T14:14:03;9.20;99.90
9125;DHT22;4597;48.730;9.114;2022-11-20T14:16:33;9.20;99.90
9125;DHT22;4597;48.730;9.114;2022-11-20T14:21:44;9.20;99.90
9125;DHT22;4597;48.730;9.114;2022-11-20T14:24:12;9.20;99.90
9125;DHT22;4597;48.730;9.114;2022-11-20T14:26:41;9.20;99.90
9125;DHT22;4597;48.730;9.114;2022-11-20T14:29:16;9.20;99.90
9125;DHT22;4597;48.730;9.114;2022-11-20T14:31:43;9.20;99.90
9125;DHT22;4597;48.730;9.114;2022-11-20T14:34:18;9.20;99.90
9125;DHT22;4597;48.730;9.114;2022-11-20T14:36:45;9.20;99.90
9125;DHT22;4597;48.730;9.114;2022-11-20T14:39:32;9.30;99.90
9125;DHT22;4597;48.730;9.114;2022-11-20T14:41:58;9.30;99.90
9125;DHT22;4597;48.730;9.114;2022-11-20T14:44:31;9.40;99.90
9125;DHT22;4597;48.730;9.114;2022-11-20T14:46:59;9.40;99.90
9125;DHT22;4597;48.730;9.114;2022-11-20T14:49:26;9.60;99.90
9125;DHT22;4597;48.730;9.114;2022-11-20T14:52:15;9.60;99.90
9125;DHT22;4597;48.730;9.114;2022-11-20T14:54:50;9.50;99.90
9125;DHT22;4597;48.730;9.114;2022-11-20T14:59:49;9.30;99.90
9125;DHT22;4597;48.730;9.114;2022-11-20T15:02:15;9.10;99.90
9125;DHT22;4597;48.730;9.114;2022-11-20T15:05:01;8.90;99.90
9125;DHT22;4597;48.730;9.114;2022-11-20T15:07:34;8.90;99.90
9125;DHT22;4597;48.730;9.114;2022-11-20T15:10:07;8.90;99.90
9125;DHT22;4597;48.730;9.114;2022-11-20T15:12:36;8.80;99.90
9125;DHT22;4597;48.730;9.114;2022-11-20T15:15:03;8.70;99.90
9125;DHT22;4597;48.730;9.114;2022-11-20T15:17:31;8.60;99.90
9125;DHT22;4597;48.730;9.114;2022-11-20T15:19:57;8.40;99.90
9125;DHT22;4597;48.730;9.114;2022-11-20T15:22:24;8.30;99.90
9125;DHT22;4597;48.730;9.114;2022-11-20T15:24:49;8.30;99.90
9125;DHT22;4597;48.730;9.114;2022-11-20T15:27:15;8.30;99.90
9125;DHT22;4597;48.730;9.114;2022-11-20T15:29:41;8.20;99.90
9125;DHT22;4597;48.730;9.114;2022-11-20T15:32:08;8.10;99.90
9125;DHT22;4597;48.730;9.114;2022-11-20T15:34:33;8.10;99.90
9125;DHT22;4597;48.730;9.114;2022-11-20T15:36:59;8.10;99.90
9125;DHT22;4597;48.730;9.114;2022-11-20T15:39:24;8.00;99.90
9125;DHT22;4597;48.730;9.114;2022-11-20T15:41:50;8.00;99.90
9125;DHT22;4597;48.730;9.114;2022-11-20T15:44:16;8.00;99.90
9125;DHT22;4597;48.730;9.114;2022-11-20T15:46:42;8.00;99.90
9125;DHT22;4597;48.730;9.114;2022-11-20T15:49:13;8.00;99.90
9125;DHT22;4597;48.730;9.114;2022-11-20T15:51:41;8.00;99.90
9125;DHT22;4597;48.730;9.114;2022-11-20T15:54:19;7.90;99.90
9125;DHT22;4597;48.730;9.114;2022-11-20T15:56:47;7.90;99.90
9125;DHT22;4597;48.730;9.114;2022-11-20T15:59:13;7.90;99.90
9125;DHT22;4597;48.730;9.114;2022-11-20T16:01:42;7.90;99.90
9125;DHT22;4597;48.730;9.114;2022-11-20T16:04:15;7.90;99.90
9125;DHT22;4597;48.730;9.114;2022-11-20T16:06:41;7.90;99.90
9125;DHT22;4597;48.730;9.114;2022-11-20T16:09:08;7.90;99.90
9125;DHT22;4597;48.730;9.114;2022-11-20T16:11:34;7.80;99.90
9125;DHT22;4597;48.730;9.114;2022-11-20T16:14:02;7.80;99.90
9125;DHT22;4597;48.730;9.114;2022-11-20T16:16:47;7.90;99.90
9125;DHT22;4597;48.730;9.114;2022-11-20T16:19:13;7.80;99.90
9125;DHT22;4597;48.730;9.114;2022-11-20T16:21:40;7.80;99.90
9125;DHT22;4597;48.730;9.114;2022-11-20T16:24:08;7.70;99.90
9125;DHT22;4597;48.730;9.114;2022-11-20T16:26:34;7.70;99.90
9125;DHT22;4597;48.730;9.114;2022-11-20T16:29:00;7.60;99.90
9125;DHT22;4597;48.730;9.114;2022-11-20T16:31:26;7.60;99.90
9125;DHT22;4597;48.730;9.114;2022-11-20T16:33:56;7.60;99.90
9125;DHT22;4597;48.730;9.114;2022-11-20T16:36:23;7.60;99.90
9125;DHT22;4597;48.730;9.114;2022-11-20T16:38:53;7.50;99.90
9125;DHT22;4597;48.730;9.114;2022-11-20T16:41:19;7.60;99.90
9125;DHT22;4597;48.730;9.114;2022-11-20T16:43:50;7.60;99.90
9125;DHT22;4597;48.730;9.114;2022-11-20T16:46:18;7.50;99.90
9125;DHT22;4597;48.730;9.114;2022-11-20T16:48:45;7.50;99.90
9125;DHT22;4597;48.730;9.114;2022-11-20T16:51:11;7.50;99.90
9125;DHT22;4597;48.730;9.114;2022-11-20T16:53:38;7.50;99.90
9125;DHT22;4597;48.730;9.114;2022-11-20T16:56:15;7.50;99.90
9125;DHT22;4597;48.730;9.114;2022-11-20T16:58:42;7.50;99.90
9125;DHT22;4597;48.730;9.114;2022-11-20T17:01:09;7.50;99.90
9125;DHT22;4597;48.730;9.114;2022-11-20T17:03:44;7.40;99.90
9125;DHT22;4597;48.730;9.114;2022-11-20T17:06:16;7.40;99.90
9125;DHT22;4597;48.730;9.114;2022-11-20T17:08:42;7.40;99.90
9125;DHT22;4597;48.730;9.114;2022-11-20T17:11:11;7.40;99.90
9125;DHT22;4597;48.730;9.114;2022-11-20T17:13:37;7.40;99.90
9125;DHT22;4597;48.730;9.114;2022-11-20T17:16:06;7.40;99.90
9125;DHT22;4597;48.730;9.114;2022-11-20T17:18:31;7.40;99.90
9125;DHT22;4597;48.730;9.114;2022-11-20T17:20:58;7.30;99.90
9125;DHT22;4597;48.730;9.114;2022-11-20T17:23:27;7.30;99.90
9125;DHT22;4597;48.730;9.114;2022-11-20T17:26:03;7.30;99.90
9125;DHT22;4597;48.730;9.114;2022-11-20T17:28:29;7.30;99.90
9125;DHT22;4597;48.730;9.114;2022-11-20T17:31:06;7.30;99.90
9125;DHT22;4597;48.730;9.114;2022-11-20T17:33:34;7.40;99.90
9125;DHT22;4597;48.730;9.114;2022-11-20T17:36:00;7.30;99.90
9125;DHT22;4597;48.730;9.114;2022-11-20T17:38:26;7.30;99.90
9125;DHT22;4597;48.730;9.114;2022-11-20T17:40:51;7.30;99.90
9125;DHT22;4597;48.730;9.114;2022-11-20T17:43:17;7.30;99.90
9125;DHT22;4597;48.730;9.114;2022-11-20T17:45:42;7.30;99.90
9125;DHT22;4597;48.730;9.114;2022-11-20T17:48:09;7.30;99.90
9125;DHT22;4597;48.730;9.114;2022-11-20T17:50:35;7.30;99.90